LNR592 MDPC-KMIA
Flight info
| Callsign | LNR592 |
|---|---|
| Flight time | N/A |
| Altitude | 38000 |
| Route | MALVN2T MALVN Y261 MADIZ VIICE2 |
| Aircraft | B77W/H-SDE1E2E3FGHIJ2J3J4J5M1RWXY/LB1D1 |
Departure
| Time | 2026-03-20 23:43 |
|---|---|
| Airport | Punta Cana International Airport (MDPC) |
Arrival
| Time | N/A |
|---|---|
| Airport | Miami International Airport (KMIA) |
| Time | Latitude | Longitude | Altitude | Speed | Heading |
|---|---|---|---|---|---|
| 2026-03-20 23:22 | 18.56429 | -68.36923 | 55 ft | 0 kts | 83° |
| 2026-03-20 23:32 | 18.56429 | -68.36929 | 55 ft | 2 kts | 86° |
| 2026-03-20 23:32 | 18.56429 | -68.36949 | 48 ft | 3 kts | 88° |
| 2026-03-20 23:33 | 18.56428 | -68.36970 | 47 ft | 3 kts | 88° |
| 2026-03-20 23:33 | 18.56427 | -68.36992 | 47 ft | 3 kts | 82° |
| 2026-03-20 23:33 | 18.56423 | -68.37011 | 47 ft | 3 kts | 54° |
| 2026-03-20 23:34 | 18.56408 | -68.37021 | 47 ft | 0 kts | 8° |
| 2026-03-20 23:37 | 18.56411 | -68.37021 | 47 ft | 1 kts | 8° |
| 2026-03-20 23:37 | 18.56419 | -68.37019 | 47 ft | 2 kts | 12° |
| 2026-03-20 23:37 | 18.56432 | -68.37017 | 47 ft | 2 kts | 6° |
| 2026-03-20 23:38 | 18.56473 | -68.37029 | 47 ft | 7 kts | 322° |
| 2026-03-20 23:38 | 18.56486 | -68.37048 | 51 ft | 0 kts | 296° |
| 2026-03-20 23:38 | 18.56488 | -68.37058 | 49 ft | 6 kts | 285° |
| 2026-03-20 23:39 | 18.56488 | -68.37165 | 55 ft | 22 kts | 265° |
| 2026-03-20 23:39 | 18.56472 | -68.37348 | 50 ft | 26 kts | 264° |
| 2026-03-20 23:39 | 18.56457 | -68.37523 | 50 ft | 23 kts | 265° |
| 2026-03-20 23:39 | 18.56444 | -68.37685 | 52 ft | 22 kts | 266° |
| 2026-03-20 23:40 | 18.56489 | -68.37772 | 56 ft | 0 kts | 340° |
| 2026-03-20 23:40 | 18.56492 | -68.37773 | 49 ft | 3 kts | 340° |
| 2026-03-20 23:41 | 18.56559 | -68.37788 | 50 ft | 15 kts | 350° |
| 2026-03-20 23:41 | 18.56594 | -68.37779 | 51 ft | 1 kts | 69° |
| 2026-03-20 23:41 | 18.56617 | -68.37708 | 51 ft | 20 kts | 81° |
| 2026-03-20 23:41 | 18.56622 | -68.37650 | 54 ft | 0 kts | 85° |
| 2026-03-20 23:42 | 18.56622 | -68.37649 | 56 ft | 0 kts | 85° |
| 2026-03-20 23:42 | 18.56637 | -68.37468 | 53 ft | 64 kts | 85° |
| 2026-03-20 23:43 | 18.56705 | -68.36693 | 56 ft | 145 kts | 82° |
| 2026-03-20 23:43 | 18.56772 | -68.35475 | 414 ft | 174 kts | 87° |
| 2026-03-20 23:43 | 18.56946 | -68.34124 | 910 ft | 195 kts | 83° |
| 2026-03-20 23:43 | 18.57124 | -68.32679 | 1583 ft | 206 kts | 89° |
| 2026-03-20 23:44 | 18.57145 | -68.31198 | 2399 ft | 203 kts | 103° |
| 2026-03-20 23:44 | 18.56623 | -68.29778 | 2960 ft | 211 kts | 119° |
| 2026-03-20 23:44 | 18.56324 | -68.28235 | 3421 ft | 237 kts | 83° |
| 2026-03-20 23:44 | 18.57081 | -68.26666 | 4221 ft | 243 kts | 50° |
| 2026-03-20 23:45 | 18.58467 | -68.25643 | 5310 ft | 238 kts | 27° |
| 2026-03-20 23:45 | 18.59786 | -68.24532 | 5607 ft | 266 kts | 55° |
| 2026-03-20 23:45 | 18.60556 | -68.22708 | 5478 ft | 275 kts | 86° |
| 2026-03-20 23:45 | 18.60292 | -68.20791 | 5764 ft | 263 kts | 122° |
| 2026-03-20 23:46 | 18.59048 | -68.19426 | 6161 ft | 259 kts | 155° |
| 2026-03-20 23:46 | 18.57310 | -68.19083 | 6493 ft | 254 kts | 189° |
| 2026-03-20 23:46 | 18.55714 | -68.19899 | 6830 ft | 264 kts | 224° |
| 2026-03-20 23:46 | 18.54813 | -68.21611 | 7169 ft | 277 kts | 257° |
| 2026-03-20 23:47 | 18.54631 | -68.23623 | 7535 ft | 277 kts | 262° |
| 2026-03-20 23:47 | 18.54232 | -68.25616 | 7856 ft | 279 kts | 244° |
| 2026-03-20 23:47 | 18.53002 | -68.27137 | 8180 ft | 274 kts | 211° |
| 2026-03-20 23:47 | 18.51262 | -68.27897 | 8540 ft | 268 kts | 207° |
| 2026-03-20 23:48 | 18.49857 | -68.29189 | 8874 ft | 278 kts | 240° |
| 2026-03-20 23:48 | 18.49390 | -68.31154 | 9584 ft | 281 kts | 269° |
| 2026-03-20 23:48 | 18.49441 | -68.33228 | 10186 ft | 284 kts | 269° |
| 2026-03-20 23:48 | 18.49422 | -68.34630 | 10605 ft | 295 kts | 267° |
| 2026-03-20 23:49 | 18.49281 | -68.36883 | 11011 ft | 323 kts | 264° |
| 2026-03-20 23:49 | 18.49009 | -68.39359 | 11007 ft | 350 kts | 262° |
| 2026-03-20 23:49 | 18.48640 | -68.41912 | 11003 ft | 353 kts | 260° |
| 2026-03-20 23:49 | 18.48217 | -68.44460 | 11517 ft | 355 kts | 259° |
| 2026-03-20 23:50 | 18.47767 | -68.47054 | 12374 ft | 365 kts | 259° |
| 2026-03-20 23:50 | 18.47309 | -68.49675 | 13559 ft | 364 kts | 260° |
| 2026-03-20 23:50 | 18.46923 | -68.52320 | 14424 ft | 367 kts | 266° |
| 2026-03-20 23:50 | 18.47076 | -68.55040 | 15174 ft | 377 kts | 279° |
| 2026-03-20 23:51 | 18.47739 | -68.57724 | 16109 ft | 381 kts | 287° |
| 2026-03-20 23:51 | 18.48668 | -68.60356 | 16868 ft | 386 kts | 291° |
| 2026-03-20 23:51 | 18.49820 | -68.62927 | 17023 ft | 391 kts | 294° |
| 2026-03-20 23:51 | 18.51055 | -68.65485 | 17025 ft | 391 kts | 295° |
| 2026-03-20 23:52 | 18.52302 | -68.68018 | 17023 ft | 389 kts | 295° |
| 2026-03-20 23:52 | 18.53542 | -68.70546 | 17021 ft | 388 kts | 295° |
| 2026-03-20 23:52 | 18.54769 | -68.73075 | 17030 ft | 388 kts | 295° |
| 2026-03-20 23:52 | 18.55989 | -68.75611 | 17030 ft | 388 kts | 295° |
| 2026-03-20 23:53 | 18.57202 | -68.78147 | 17028 ft | 388 kts | 295° |
| 2026-03-20 23:53 | 18.58413 | -68.80688 | 17030 ft | 388 kts | 295° |
| 2026-03-20 23:53 | 18.59624 | -68.83232 | 17024 ft | 389 kts | 295° |
| 2026-03-20 23:53 | 18.60837 | -68.85779 | 17025 ft | 389 kts | 295° |
| 2026-03-20 23:54 | 18.62049 | -68.88326 | 17026 ft | 389 kts | 295° |
| 2026-03-20 23:54 | 18.63262 | -68.90875 | 17026 ft | 389 kts | 295° |
| 2026-03-20 23:54 | 18.64471 | -68.93448 | 17439 ft | 394 kts | 294° |
| 2026-03-20 23:54 | 18.65679 | -68.96051 | 18383 ft | 396 kts | 294° |
| 2026-03-20 23:55 | 18.66886 | -68.98665 | 19305 ft | 396 kts | 293° |